Terminal Aerodrome Forecast
Issued by NWS Dallas/Fort Worth, TX

Current Version | Previous Version | Text Only | Print | Product List | Glossary On
Versions: 1 2 3 4 5 6 7 8 9 10 11 12 13 14 15 16 17 18 19 20 21 22 23 24 25 26 27 28 29 30
187
FTUS44 KFWD 251458 AAA
TAFACT
TAF AMD
KACT 251458Z 2515/2612 30011KT P6SM SKC
     FM260200 VRB03KT P6SM FEW250
     FM260600 17005KT P6SM FEW250=

USA.gov is the U.S. government's official web portal to all federal, state and local government web resources and services.